createdAt,value
2018-09-03T00:00:40.056Z,49.38
2018-09-03T00:01:39.984Z,49.19
2018-09-03T00:02:39.912Z,48.52
2018-09-03T00:03:39.838Z,46.61
2018-09-03T00:04:39.765Z,46.31
2018-09-03T00:05:39.694Z,46.61
2018-09-03T00:06:39.620Z,46.77
2018-09-03T00:07:39.548Z,45.84
2018-09-03T00:08:39.479Z,46.12
2018-09-03T00:09:39.402Z,47.27
2018-09-03T00:10:39.328Z,47.47
2018-09-03T00:11:39.264Z,47.66
2018-09-03T00:12:39.182Z,48.80
2018-09-03T00:13:39.111Z,50.43
2018-09-03T00:14:39.036Z,51.01
2018-09-03T00:15:38.964Z,50.62
2018-09-03T00:16:38.889Z,50.81
2018-09-03T00:17:38.817Z,50.52
2018-09-03T00:18:38.745Z,51.48
2018-09-03T00:19:38.823Z,51.29
2018-09-03T00:20:38.598Z,51.48
2018-09-03T00:21:38.525Z,51.29
2018-09-03T00:22:38.455Z,51.01
2018-09-03T00:23:38.381Z,52.44
2018-09-03T00:24:38.307Z,52.83
2018-09-03T00:25:38.234Z,51.01
2018-09-03T00:26:38.162Z,50.72
2018-09-03T00:27:38.090Z,51.87
2018-09-03T00:28:38.016Z,52.73
2018-09-03T00:29:37.943Z,53.78
2018-09-03T00:30:37.920Z,53.69
2018-09-03T00:31:37.799Z,55.22
2018-09-03T00:32:37.725Z,57.99
2018-09-03T00:33:37.651Z,58.86
2018-09-03T00:34:37.580Z,59.33
2018-09-03T00:35:37.506Z,59.62
2018-09-03T00:36:37.433Z,60.10
2018-09-03T00:37:37.361Z,60.19
2018-09-03T00:38:37.287Z,60.48
2018-09-03T00:39:37.216Z,60.38
2018-09-03T00:40:37.141Z,57.92
2018-09-03T00:41:37.069Z,55.22
2018-09-03T00:42:36.997Z,56.46
2018-09-03T00:43:36.924Z,55.88
2018-09-03T00:44:36.851Z,56.17
2018-09-03T00:45:36.778Z,53.78
2018-09-03T00:46:36.706Z,54.83
2018-09-03T00:47:36.634Z,55.41
2018-09-03T00:48:36.560Z,55.22
2018-09-03T00:49:36.488Z,54.16
2018-09-03T00:50:36.414Z,53.40
2018-09-03T00:51:36.342Z,52.73
2018-09-03T00:52:36.269Z,52.73
2018-09-03T00:53:36.197Z,52.15
2018-09-03T00:54:36.124Z,52.63
2018-09-03T00:55:36.051Z,50.91
2018-09-03T00:56:35.978Z,50.52
2018-09-03T00:57:35.905Z,50.72
2018-09-03T00:58:35.835Z,49.66
2018-09-03T00:59:35.760Z,49.38
2018-09-03T01:00:35.688Z,48.90
2018-09-03T01:01:35.618Z,48.71
2018-09-03T01:02:35.541Z,48.04
2018-09-03T01:03:35.469Z,47.37
2018-09-03T01:04:35.395Z,48.52
2018-09-03T01:05:35.325Z,48.52
2018-09-03T01:06:35.251Z,48.42
2018-09-03T01:07:35.178Z,48.80
2018-09-03T01:08:35.104Z,48.42
2018-09-03T01:09:35.032Z,48.71
2018-09-03T01:10:34.959Z,48.90
2018-09-03T01:11:34.885Z,49.66
2018-09-03T01:12:34.812Z,50.72
2018-09-03T01:13:34.741Z,50.91
2018-09-03T01:14:34.668Z,50.72
2018-09-03T01:15:34.598Z,49.95
2018-09-03T01:16:34.522Z,48.71
2018-09-03T01:17:34.449Z,46.80
2018-09-03T01:18:34.375Z,45.74
2018-09-03T01:19:34.305Z,45.91
2018-09-03T01:20:34.231Z,45.36
2018-09-03T01:21:34.158Z,45.43
2018-09-03T01:22:34.086Z,46.03
2018-09-03T01:23:34.015Z,45.05
2018-09-03T01:24:33.939Z,46.03
2018-09-03T01:25:33.868Z,46.30
2018-09-03T01:26:33.793Z,45.45
2018-09-03T01:27:33.720Z,45.94
2018-09-03T01:28:33.647Z,45.45
2018-09-03T01:29:33.615Z,45.07
2018-09-03T01:30:33.503Z,45.55
2018-09-03T01:31:33.429Z,45.74
2018-09-03T01:32:33.355Z,45.34
2018-09-03T01:33:33.283Z,44.59
2018-09-03T01:34:33.215Z,44.19
2018-09-03T01:35:33.137Z,44.38
2018-09-03T01:36:33.065Z,44.00
2018-09-03T01:37:32.991Z,43.44
2018-09-03T01:38:32.919Z,44.98
2018-09-03T01:39:32.846Z,46.48
2018-09-03T01:40:32.773Z,46.30
2018-09-03T01:41:32.699Z,46.89
2018-09-03T01:42:32.626Z,46.41
2018-09-03T01:43:32.554Z,46.70
2018-09-03T01:44:32.481Z,45.91
2018-09-03T01:45:32.408Z,45.34
2018-09-03T01:46:32.335Z,45.36
2018-09-03T01:47:32.262Z,44.76
2018-09-03T01:48:32.188Z,44.59
2018-09-03T01:49:32.115Z,45.26
2018-09-03T01:50:32.043Z,46.20
2018-09-03T01:51:31.971Z,46.01
2018-09-03T01:52:31.898Z,46.12
2018-09-03T01:53:31.828Z,47.16
2018-09-03T01:54:31.753Z,46.96
2018-09-03T01:55:31.679Z,47.27
2018-09-03T01:56:31.607Z,48.13
2018-09-03T01:57:31.534Z,48.80
2018-09-03T01:58:31.462Z,48.59
2018-09-03T01:59:31.389Z,49.93
2018-09-03T02:00:31.323Z,49.66
2018-09-03T02:01:31.242Z,49.48
2018-09-03T02:02:31.170Z,50.34
2018-09-03T02:03:31.100Z,50.31
2018-09-03T02:04:31.024Z,50.81
2018-09-03T02:05:30.952Z,50.72
2018-09-03T02:06:30.879Z,49.95
2018-09-03T02:07:30.808Z,49.48
2018-09-03T02:08:30.732Z,48.88
2018-09-03T02:09:30.658Z,49.19
2018-09-03T02:10:30.588Z,48.71
2018-09-03T02:11:30.515Z,48.39
2018-09-03T02:12:30.441Z,47.44
2018-09-03T02:13:30.368Z,46.48
2018-09-03T02:14:30.296Z,46.30
2018-09-03T02:15:30.223Z,44.95
2018-09-03T02:16:30.150Z,45.05
2018-09-03T02:17:30.076Z,44.86
2018-09-03T02:18:30.003Z,44.95
2018-09-03T02:19:29.931Z,45.34
2018-09-03T02:20:29.860Z,46.12
2018-09-03T02:21:29.785Z,47.16
2018-09-03T02:22:29.714Z,47.06
2018-09-03T02:23:29.639Z,47.25
2018-09-03T02:24:29.566Z,46.70
2018-09-03T02:25:29.496Z,46.48
2018-09-03T02:26:29.420Z,45.24
2018-09-03T02:27:29.347Z,44.38
2018-09-03T02:28:29.274Z,44.19
2018-09-03T02:29:29.204Z,43.52
2018-09-03T02:30:29.129Z,43.23
2018-09-03T02:31:29.056Z,42.37
2018-09-03T02:32:28.984Z,41.51
2018-09-03T02:33:28.909Z,41.61
2018-09-03T02:34:28.839Z,42.37
2018-09-03T02:35:28.766Z,42.37
2018-09-03T02:36:28.690Z,42.27
2018-09-03T02:37:28.617Z,41.70
2018-09-03T02:38:28.543Z,41.32
2018-09-03T02:39:28.473Z,40.94
2018-09-03T02:40:28.397Z,40.94
2018-09-03T02:41:28.327Z,41.03
2018-09-03T02:42:28.252Z,40.75
2018-09-03T02:43:28.178Z,41.03
2018-09-03T02:44:28.104Z,41.03
2018-09-03T02:45:28.032Z,41.41
2018-09-03T02:46:27.960Z,41.22
2018-09-03T02:47:27.885Z,41.32
2018-09-03T02:48:27.817Z,41.32
2018-09-03T02:49:27.838Z,41.41
2018-09-03T02:50:27.666Z,41.51
2018-09-03T02:51:27.594Z,42.08
2018-09-03T02:52:27.524Z,42.37
2018-09-03T02:53:27.446Z,42.37
2018-09-03T02:54:27.374Z,41.80
2018-09-03T02:55:27.301Z,41.03
2018-09-03T02:56:27.227Z,40.94
2018-09-03T02:57:27.155Z,41.13
2018-09-03T02:58:27.082Z,41.41
2018-09-03T02:59:27.010Z,42.37
2018-09-03T03:00:26.935Z,42.37
2018-09-03T03:01:26.863Z,42.47
2018-09-03T03:02:26.790Z,42.66
2018-09-03T03:03:26.717Z,44.29
2018-09-03T03:04:26.643Z,45.24
2018-09-03T03:05:26.571Z,44.67
2018-09-03T03:06:26.498Z,44.19
2018-09-03T03:07:26.428Z,43.80
2018-09-03T03:08:26.351Z,43.62
2018-09-03T03:09:26.288Z,42.37
2018-09-03T03:10:26.206Z,42.27
2018-09-03T03:11:26.134Z,42.27
2018-09-03T03:12:26.060Z,42.76
2018-09-03T03:13:25.987Z,42.76
2018-09-03T03:14:25.921Z,42.47
2018-09-03T03:15:25.842Z,43.04
2018-09-03T03:16:25.767Z,43.52
2018-09-03T03:17:25.695Z,44.00
2018-09-03T03:18:25.622Z,43.43
2018-09-03T03:19:25.581Z,43.62
2018-09-03T03:20:25.476Z,43.23
2018-09-03T03:21:25.403Z,43.04
2018-09-03T03:22:25.330Z,43.23
2018-09-03T03:23:25.259Z,43.14
2018-09-03T03:24:25.185Z,43.04
2018-09-03T03:25:25.112Z,42.85
2018-09-03T03:26:25.040Z,42.37
2018-09-03T03:27:24.965Z,42.18
2018-09-03T03:28:24.893Z,42.37
2018-09-03T03:29:24.818Z,42.37
2018-09-03T03:30:24.748Z,42.47
2018-09-03T03:31:24.679Z,42.37
2018-09-03T03:32:24.600Z,41.70
2018-09-03T03:33:24.531Z,41.22
2018-09-03T03:34:24.455Z,40.94
2018-09-03T03:35:24.382Z,41.32
2018-09-03T03:36:24.308Z,41.32
2018-09-03T03:37:24.235Z,41.03
2018-09-03T03:38:24.162Z,40.84
2018-09-03T03:39:24.090Z,41.61
2018-09-03T03:40:24.015Z,41.51
2018-09-03T03:41:23.942Z,41.51
2018-09-03T03:42:23.869Z,42.08
2018-09-03T03:43:23.797Z,42.47
2018-09-03T03:44:23.722Z,42.37
2018-09-03T03:45:23.650Z,41.89
2018-09-03T03:46:23.577Z,42.18
2018-09-03T03:47:23.511Z,41.51
2018-09-03T03:48:23.430Z,40.95
2018-09-03T03:49:23.361Z,41.15
2018-09-03T03:50:23.286Z,42.20
2018-09-03T03:51:23.213Z,42.77
2018-09-03T03:52:23.139Z,42.58
2018-09-03T03:53:23.067Z,43.63
2018-09-03T03:54:22.994Z,44.50
2018-09-03T03:55:22.921Z,45.65
2018-09-03T03:56:22.847Z,45.26
2018-09-03T03:57:22.775Z,44.48
2018-09-03T03:58:22.706Z,44.09
2018-09-03T03:59:22.630Z,44.09
2018-09-03T04:00:22.559Z,43.43
2018-09-03T04:01:22.483Z,43.04
2018-09-03T04:02:22.413Z,42.76
2018-09-03T04:03:22.338Z,42.27
2018-09-03T04:04:22.271Z,41.51
2018-09-03T04:05:22.190Z,41.22
2018-09-03T04:06:22.119Z,41.22
2018-09-03T04:07:22.046Z,40.94
2018-09-03T04:08:21.972Z,41.13
2018-09-03T04:09:21.899Z,40.75
2018-09-03T04:10:21.826Z,40.46
2018-09-03T04:11:21.753Z,40.75
2018-09-03T04:12:21.680Z,40.84
2018-09-03T04:13:21.607Z,42.27
2018-09-03T04:14:21.534Z,44.57
2018-09-03T04:15:21.461Z,45.81
2018-09-03T04:16:21.388Z,46.12
2018-09-03T04:17:21.315Z,46.12
2018-09-03T04:18:21.242Z,45.65
2018-09-03T04:19:21.170Z,45.74
2018-09-03T04:20:21.097Z,45.55
2018-09-03T04:21:21.029Z,44.88
2018-09-03T04:22:20.952Z,44.21
2018-09-03T04:23:21.095Z,43.52
2018-09-03T04:24:20.806Z,42.97
2018-09-03T04:25:20.733Z,43.63
2018-09-03T04:26:20.660Z,44.21
2018-09-03T04:27:20.586Z,44.12
2018-09-03T04:28:20.513Z,42.49
2018-09-03T04:29:20.444Z,44.02
2018-09-03T04:30:20.369Z,43.63
2018-09-03T04:31:20.295Z,43.26
2018-09-03T04:32:20.221Z,43.44
2018-09-03T04:33:20.153Z,44.02
2018-09-03T04:34:20.077Z,44.12
2018-09-03T04:35:20.005Z,45.26
2018-09-03T04:36:19.930Z,46.51
2018-09-03T04:37:19.858Z,46.89
2018-09-03T04:38:19.786Z,47.18
2018-09-03T04:39:19.715Z,46.41
2018-09-03T04:40:19.641Z,49.09
2018-09-03T04:41:19.566Z,48.61
2018-09-03T04:42:19.495Z,48.61
2018-09-03T04:43:19.421Z,47.37
2018-09-03T04:44:19.347Z,45.84
2018-09-03T04:45:19.278Z,45.84
2018-09-03T04:46:19.203Z,45.07
2018-09-03T04:47:19.132Z,44.98
2018-09-03T04:48:19.067Z,44.79
2018-09-03T04:49:18.983Z,45.26
2018-09-03T04:50:18.915Z,45.07
2018-09-03T04:51:18.840Z,45.07
2018-09-03T04:52:18.766Z,45.84
2018-09-03T04:53:18.694Z,47.94
2018-09-03T04:54:18.621Z,48.90
2018-09-03T04:55:18.620Z,47.85
2018-09-03T04:56:18.475Z,46.61
2018-09-03T04:57:18.403Z,46.31
2018-09-03T04:58:18.330Z,45.65
2018-09-03T04:59:18.258Z,45.36
2018-09-03T05:00:18.184Z,45.84
2018-09-03T05:01:18.111Z,47.85
2018-09-03T05:02:18.039Z,48.33
2018-09-03T05:03:17.965Z,48.61
2018-09-03T05:04:17.893Z,48.61
2018-09-03T05:05:17.824Z,48.80
2018-09-03T05:06:17.748Z,48.80
2018-09-03T05:07:17.675Z,50.05
2018-09-03T05:08:17.601Z,49.95
2018-09-03T05:09:17.528Z,49.19
2018-09-03T05:10:17.455Z,49.86
2018-09-03T05:11:17.384Z,50.05
2018-09-03T05:12:17.310Z,50.15
2018-09-03T05:13:17.238Z,51.01
2018-09-03T05:14:17.163Z,50.52
2018-09-03T05:15:17.093Z,50.34
2018-09-03T05:16:17.018Z,50.81
2018-09-03T05:17:16.946Z,51.68
2018-09-03T05:18:16.873Z,52.15
2018-09-03T05:19:16.802Z,50.81
2018-09-03T05:20:16.732Z,51.01
2018-09-03T05:21:16.655Z,51.01
2018-09-03T05:22:16.583Z,49.95
2018-09-03T05:23:16.510Z,50.15
2018-09-03T05:24:16.436Z,51.29
2018-09-03T05:25:16.369Z,51.87
2018-09-03T05:26:16.291Z,51.68
2018-09-03T05:27:16.221Z,51.97
2018-09-03T05:28:16.145Z,52.06
2018-09-03T05:29:16.074Z,51.42
2018-09-03T05:30:16.002Z,51.87
2018-09-03T05:31:15.973Z,53.11
2018-09-03T05:32:15.856Z,51.97
2018-09-03T05:33:15.783Z,51.39
2018-09-03T05:34:15.712Z,49.98
2018-09-03T05:35:15.639Z,49.98
2018-09-03T05:36:15.565Z,51.87
2018-09-03T05:37:15.495Z,52.63
2018-09-03T05:38:15.426Z,52.44
2018-09-03T05:39:15.352Z,51.48
2018-09-03T05:40:15.276Z,51.03
2018-09-03T05:41:15.203Z,50.62
2018-09-03T05:42:15.131Z,51.97
2018-09-03T05:43:15.100Z,51.48
2018-09-03T05:44:14.986Z,50.62
2018-09-03T05:45:14.913Z,50.72
2018-09-03T05:46:14.839Z,52.15
2018-09-03T05:47:14.772Z,53.20
2018-09-03T05:48:14.695Z,51.87
2018-09-03T05:49:14.672Z,52.28
2018-09-03T05:50:14.601Z,53.33
2018-09-03T05:51:14.478Z,53.49
2018-09-03T05:52:14.403Z,53.62
2018-09-03T05:53:14.332Z,52.63
2018-09-03T05:54:14.262Z,52.37
2018-09-03T05:55:14.187Z,52.18
2018-09-03T05:56:14.114Z,52.73
2018-09-03T05:57:14.046Z,53.23
2018-09-03T05:58:13.969Z,52.95
2018-09-03T05:59:14.059Z,51.89
2018-09-03T06:00:13.823Z,52.47
2018-09-03T06:01:13.752Z,53.81
2018-09-03T06:02:13.684Z,54.38
2018-09-03T06:03:13.607Z,54.19
2018-09-03T06:04:13.535Z,54.00
2018-09-03T06:05:13.461Z,54.48
2018-09-03T06:06:13.389Z,54.67
2018-09-03T06:07:13.316Z,54.28
2018-09-03T06:08:13.244Z,54.77
2018-09-03T06:09:13.175Z,55.91
2018-09-03T06:10:13.099Z,56.77
2018-09-03T06:11:13.045Z,56.68
2018-09-03T06:12:12.954Z,55.44
2018-09-03T06:13:12.882Z,55.63
2018-09-03T06:14:12.812Z,54.96
2018-09-03T06:15:12.737Z,54.48
2018-09-03T06:16:12.663Z,53.33
2018-09-03T06:17:12.596Z,53.33
2018-09-03T06:18:12.519Z,54.38
2018-09-03T06:19:12.448Z,56.01
2018-09-03T06:20:12.374Z,55.15
2018-09-03T06:21:12.303Z,56.97
2018-09-03T06:22:12.231Z,56.49
2018-09-03T06:23:12.159Z,56.49
2018-09-03T06:24:12.086Z,56.10
2018-09-03T06:25:12.014Z,55.24
2018-09-03T06:26:11.942Z,55.15
2018-09-03T06:27:11.875Z,54.77
2018-09-03T06:28:11.797Z,56.10
2018-09-03T06:29:11.725Z,56.49
2018-09-03T06:30:11.654Z,55.82
2018-09-03T06:31:11.581Z,55.24
2018-09-03T06:32:11.507Z,55.53
2018-09-03T06:33:11.436Z,56.30
2018-09-03T06:34:11.365Z,57.54
2018-09-03T06:35:11.291Z,56.39
2018-09-03T06:36:11.219Z,54.00
2018-09-03T06:37:11.150Z,55.24
2018-09-03T06:38:11.075Z,56.77
2018-09-03T06:39:11.031Z,56.39
2018-09-03T06:40:10.930Z,57.64
2018-09-03T06:41:10.858Z,56.39
2018-09-03T06:42:10.785Z,57.26
2018-09-03T06:43:10.715Z,58.91
2018-09-03T06:44:10.640Z,56.97
2018-09-03T06:45:10.569Z,57.54
2018-09-03T06:46:10.497Z,57.09
2018-09-03T06:47:10.425Z,57.35
2018-09-03T06:48:10.351Z,57.35
2018-09-03T06:49:10.281Z,56.30
2018-09-03T06:50:10.209Z,56.39
2018-09-03T06:51:10.136Z,58.34
2018-09-03T06:52:10.063Z,57.54
2018-09-03T06:53:09.992Z,56.32
2018-09-03T06:54:09.920Z,58.34
2018-09-03T06:55:09.849Z,59.01
2018-09-03T06:56:09.776Z,58.44
2018-09-03T06:57:09.706Z,57.95
2018-09-03T06:58:09.631Z,60.35
2018-09-03T06:59:09.560Z,59.20
2018-09-03T07:00:09.485Z,57.95
2018-09-03T07:01:09.415Z,59.77
2018-09-03T07:02:09.344Z,60.16
2018-09-03T07:03:09.271Z,59.11
2018-09-03T07:04:09.200Z,59.11
2018-09-03T07:05:09.128Z,60.16
2018-09-03T07:06:09.055Z,61.21
2018-09-03T07:07:08.984Z,61.31
2018-09-03T07:08:08.910Z,61.11
2018-09-03T07:09:08.841Z,61.02
2018-09-03T07:10:08.767Z,58.53
2018-09-03T07:11:08.695Z,59.20
2018-09-03T07:12:08.622Z,58.34
2018-09-03T07:13:08.550Z,58.72
2018-09-03T07:14:08.478Z,58.62
2018-09-03T07:15:08.407Z,58.44
2018-09-03T07:16:08.333Z,61.11
2018-09-03T07:17:08.264Z,60.16
2018-09-03T07:18:08.193Z,61.50
2018-09-03T07:19:08.120Z,61.72
2018-09-03T07:20:08.046Z,61.53
2018-09-03T07:21:07.974Z,60.00
2018-09-03T07:22:07.904Z,62.39
2018-09-03T07:23:07.833Z,60.19
2018-09-03T07:24:07.760Z,61.91
2018-09-03T07:25:07.688Z,61.15
2018-09-03T07:26:07.615Z,61.98
2018-09-03T07:27:07.545Z,62.07
2018-09-03T07:28:07.472Z,61.69
2018-09-03T07:29:07.402Z,59.77
2018-09-03T07:30:07.332Z,61.31
2018-09-03T07:31:07.258Z,61.50
2018-09-03T07:32:07.186Z,59.77
2018-09-03T07:33:07.114Z,60.57
2018-09-03T07:34:07.042Z,58.94
2018-09-03T07:35:06.995Z,63.45
2018-09-03T07:36:06.898Z,65.84
2018-09-03T07:37:06.825Z,66.13
2018-09-03T07:38:06.755Z,66.61
2018-09-03T07:39:06.689Z,68.14
2018-09-03T07:40:06.612Z,67.22
2018-09-03T07:41:06.541Z,68.66
2018-09-03T07:42:06.468Z,67.99
2018-09-03T07:43:06.397Z,68.75
2018-09-03T07:44:06.385Z,67.02
2018-09-03T07:45:06.253Z,72.49
2018-09-03T07:46:06.183Z,69.81
2018-09-03T07:47:06.111Z,72.39
2018-09-03T07:48:06.039Z,72.49
2018-09-03T07:49:05.968Z,73.74
2018-09-03T07:50:05.902Z,74.02
2018-09-03T07:51:05.918Z,72.49
2018-09-03T07:52:05.753Z,72.24
2018-09-03T07:53:05.783Z,73.68
2018-09-03T07:54:05.628Z,76.84
2018-09-03T07:55:05.569Z,78.86
2018-09-03T07:56:05.469Z,78.77
2018-09-03T07:57:05.395Z,77.90
2018-09-03T07:58:05.325Z,79.14
2018-09-03T07:59:05.253Z,80.53
2018-09-03T08:00:05.182Z,80.68
2018-09-03T08:01:05.143Z,80.40
2018-09-03T08:02:05.041Z,81.30
2018-09-03T08:03:04.970Z,81.20
2018-09-03T08:04:04.897Z,81.68
2018-09-03T08:05:04.826Z,80.73
2018-09-03T08:06:04.755Z,82.16
2018-09-03T08:07:04.685Z,79.28
2018-09-03T08:08:04.616Z,81.45
2018-09-03T08:09:04.543Z,80.15
2018-09-03T08:10:04.473Z,80.43
2018-09-03T08:11:04.402Z,79.67
2018-09-03T08:12:04.331Z,79.67
2018-09-03T08:13:04.354Z,78.52
2018-09-03T08:14:04.188Z,77.56
2018-09-03T08:15:04.118Z,76.12
2018-09-03T08:16:04.047Z,79.28
2018-09-03T08:17:03.976Z,82.16
2018-09-03T08:18:03.905Z,82.93
2018-09-03T08:19:03.837Z,79.96
2018-09-03T08:20:03.844Z,80.91
2018-09-03T08:21:03.694Z,82.16
2018-09-03T08:22:03.622Z,82.35
2018-09-03T08:23:03.552Z,82.07
2018-09-03T08:24:03.481Z,82.07
2018-09-03T08:25:03.411Z,81.49
2018-09-03T08:26:03.339Z,80.63
2018-09-03T08:27:03.269Z,82.16
2018-09-03T08:28:03.197Z,82.97
2018-09-03T08:29:03.127Z,84.85
2018-09-03T08:30:03.064Z,85.08
2018-09-03T08:31:02.986Z,85.95
2018-09-03T08:32:02.940Z,85.75
2018-09-03T08:33:02.850Z,83.26
2018-09-03T08:34:02.774Z,85.95
2018-09-03T08:35:02.703Z,84.89
2018-09-03T08:36:02.634Z,87.43
2018-09-03T08:37:02.563Z,90.89
2018-09-03T08:38:02.492Z,89.36
2018-09-03T08:39:02.420Z,90.22
2018-09-03T08:40:02.369Z,91.75
2018-09-03T08:41:02.280Z,90.99
2018-09-03T08:42:02.210Z,89.36
2018-09-03T08:43:02.141Z,89.45
2018-09-03T08:44:02.069Z,91.95
2018-09-03T08:45:02.003Z,91.18
2018-09-03T08:46:01.932Z,91.66
2018-09-03T08:47:01.858Z,89.98
2018-09-03T08:48:01.788Z,88.59
2018-09-03T08:49:01.718Z,89.93
2018-09-03T08:50:01.647Z,86.28
2018-09-03T08:51:01.578Z,90.03
2018-09-03T08:52:01.507Z,89.79
2018-09-03T08:53:01.436Z,89.89
2018-09-03T08:54:01.366Z,87.49
2018-09-03T08:55:01.296Z,87.01
2018-09-03T08:56:01.225Z,86.72
2018-09-03T08:57:01.155Z,85.08
2018-09-03T08:58:01.085Z,83.64
2018-09-03T08:59:01.015Z,86.24
2018-09-03T09:00:00.946Z,85.95
2018-09-03T09:01:00.876Z,87.39
2018-09-03T09:02:00.803Z,85.47
2018-09-03T09:03:00.733Z,89.40
2018-09-03T09:04:00.661Z,87.19
2018-09-03T09:05:00.592Z,90.17
2018-09-03T09:06:00.521Z,89.60
2018-09-03T09:07:00.450Z,89.40
2018-09-03T09:08:00.380Z,88.54
2018-09-03T09:09:00.309Z,88.06
2018-09-03T09:10:00.239Z,89.22
2018-09-03T09:11:00.169Z,87.43
2018-09-03T09:12:00.097Z,91.85
2018-09-03T09:13:00.027Z,93.39
2018-09-03T09:13:59.958Z,91.85
2018-09-03T09:14:59.888Z,92.72
2018-09-03T09:15:59.816Z,92.72
2018-09-03T09:16:59.746Z,92.09
2018-09-03T09:17:59.674Z,89.78
2018-09-03T09:18:59.605Z,94.30
2018-09-03T09:19:59.534Z,95.79
2018-09-03T09:20:59.464Z,97.71
2018-09-03T09:21:59.394Z,93.38
2018-09-03T09:22:59.324Z,99.99
2018-09-03T09:23:59.255Z,99.99
2018-09-03T09:24:59.203Z,99.78
2018-09-03T09:25:59.115Z,99.98
2018-09-03T09:26:59.045Z,99.99
2018-09-03T09:27:59.007Z,99.40
2018-09-03T09:28:58.905Z,99.99
2018-09-03T09:29:58.835Z,99.99
2018-09-03T09:30:58.767Z,99.99
2018-09-03T09:31:58.696Z,99.44
2018-09-03T09:32:58.630Z,96.75
2018-09-03T09:33:58.557Z,95.79
2018-09-03T09:34:58.488Z,99.99
2018-09-03T09:35:58.418Z,99.99
2018-09-03T09:36:58.348Z,99.99
2018-09-03T09:37:58.283Z,99.99
2018-09-03T09:38:58.222Z,99.99
2018-09-03T09:39:58.139Z,99.99
2018-09-03T09:40:58.070Z,99.99
2018-09-03T09:41:57.999Z,99.99
2018-09-03T09:42:57.947Z,99.99
2018-09-03T09:43:57.860Z,99.99
2018-09-03T09:44:57.797Z,99.99
2018-09-03T09:45:57.724Z,99.99
2018-09-03T09:46:57.654Z,99.99
2018-09-03T09:47:57.583Z,99.99
2018-09-03T09:48:57.515Z,99.99
2018-09-03T09:49:57.447Z,99.99
2018-09-03T09:50:57.380Z,99.99
2018-09-03T09:51:57.307Z,99.99
2018-09-03T09:52:57.240Z,99.99
2018-09-03T09:53:57.169Z,99.99
2018-09-03T09:54:57.180Z,99.99
2018-09-03T09:55:57.030Z,99.99
2018-09-03T09:56:56.961Z,99.99
2018-09-03T09:57:56.892Z,99.99
2018-09-03T09:58:56.823Z,99.99
2018-09-03T09:59:56.753Z,99.99
2018-09-03T10:00:56.684Z,99.99
2018-09-03T10:01:56.615Z,99.99
2018-09-03T10:02:56.545Z,99.99
2018-09-03T10:03:56.476Z,99.99
2018-09-03T10:04:56.407Z,99.99
2018-09-03T10:05:56.337Z,99.99
2018-09-03T10:06:56.268Z,99.99
2018-09-03T10:07:56.199Z,99.99
2018-09-03T10:08:56.130Z,99.99
2018-09-03T10:09:56.061Z,99.99
2018-09-03T10:10:55.992Z,99.99
2018-09-03T10:11:55.923Z,99.99
2018-09-03T10:12:55.856Z,99.99
2018-09-03T10:13:55.785Z,99.99
2018-09-03T10:14:55.718Z,99.99
2018-09-03T10:15:55.647Z,99.99
2018-09-03T10:16:55.578Z,99.99
2018-09-03T10:17:55.509Z,99.99
2018-09-03T10:18:55.441Z,99.99
2018-09-03T10:19:55.372Z,99.99
2018-09-03T10:20:55.361Z,99.99
2018-09-03T10:21:55.234Z,99.99
2018-09-03T10:22:55.166Z,99.99
2018-09-03T10:23:55.101Z,99.99
2018-09-03T10:24:55.028Z,99.99
2018-09-03T10:25:54.959Z,99.99
2018-09-03T10:26:54.893Z,99.99
2018-09-03T10:27:54.822Z,99.99
2018-09-03T10:28:54.753Z,99.99
2018-09-03T10:29:54.685Z,99.99
2018-09-03T10:30:54.616Z,99.99
2018-09-03T10:31:54.569Z,99.99
2018-09-03T10:32:54.480Z,99.99
2018-09-03T10:33:54.411Z,99.99
2018-09-03T10:34:54.343Z,99.99
2018-09-03T10:35:54.273Z,99.99
2018-09-03T10:36:54.206Z,99.99
2018-09-03T10:37:54.136Z,99.99
2018-09-03T10:38:54.070Z,99.99
2018-09-03T10:39:54.000Z,99.99
2018-09-03T10:40:53.931Z,99.99
2018-09-03T10:41:53.863Z,99.99
2018-09-03T10:42:53.794Z,99.99
2018-09-03T10:43:53.724Z,99.99
2018-09-03T10:44:53.656Z,99.99
2018-09-03T10:45:53.589Z,99.99
2018-09-03T10:46:53.549Z,99.99
2018-09-03T10:47:53.450Z,99.99
2018-09-03T10:48:53.382Z,99.99
2018-09-03T10:49:53.315Z,99.99
2018-09-03T10:50:53.244Z,99.99
2018-09-03T10:51:53.175Z,99.99
2018-09-03T10:52:53.106Z,99.99
2018-09-03T10:53:53.037Z,99.99
2018-09-03T10:54:52.973Z,99.99
2018-09-03T10:55:52.898Z,99.99
2018-09-03T10:56:52.838Z,99.99
2018-09-03T10:57:52.763Z,99.99
2018-09-03T10:58:52.695Z,99.99
2018-09-03T10:59:52.625Z,99.99
2018-09-03T11:00:52.557Z,99.99
2018-09-03T11:01:52.488Z,99.99
2018-09-03T11:02:52.421Z,99.99
2018-09-03T11:03:52.351Z,99.99
2018-09-03T11:04:52.284Z,99.99
2018-09-03T11:05:52.214Z,99.99
2018-09-03T11:06:52.145Z,99.99
2018-09-03T11:07:52.076Z,99.99
2018-09-03T11:08:52.008Z,99.99
2018-09-03T11:09:51.939Z,99.99
2018-09-03T11:10:51.874Z,99.99
2018-09-03T11:11:51.801Z,99.99
2018-09-03T11:12:51.733Z,99.99
2018-09-03T11:13:51.665Z,99.99
2018-09-03T11:14:51.595Z,99.99
2018-09-03T11:15:51.527Z,99.99
2018-09-03T11:16:51.457Z,99.99
2018-09-03T11:17:51.390Z,99.99
2018-09-03T11:18:51.320Z,99.99
2018-09-03T11:19:51.298Z,99.99
2018-09-03T11:20:51.184Z,99.99
2018-09-03T11:21:51.116Z,99.99
2018-09-03T11:22:51.048Z,99.99
2018-09-03T11:23:50.978Z,99.99
2018-09-03T11:24:50.908Z,99.99
2018-09-03T11:25:50.840Z,99.99
2018-09-03T11:26:50.803Z,99.99
2018-09-03T11:27:50.704Z,99.99
2018-09-03T11:28:50.744Z,99.99
2018-09-03T11:29:50.572Z,99.99
2018-09-03T11:30:50.497Z,99.99
2018-09-03T11:31:50.428Z,99.99
2018-09-03T11:32:50.360Z,99.99
2018-09-03T11:33:50.291Z,99.99
2018-09-03T11:34:50.222Z,99.99
2018-09-03T11:35:50.153Z,99.99
2018-09-03T11:36:50.085Z,99.99
2018-09-03T11:37:50.016Z,99.99
2018-09-03T11:38:49.947Z,99.99
2018-09-03T11:39:49.878Z,99.99
2018-09-03T11:40:49.812Z,99.99
2018-09-03T11:41:49.741Z,99.99
2018-09-03T11:42:49.674Z,99.99
2018-09-03T11:43:49.605Z,99.99
2018-09-03T11:44:49.534Z,99.99
2018-09-03T11:45:49.467Z,99.99
2018-09-03T11:46:49.398Z,99.99
2018-09-03T11:47:49.327Z,99.99
2018-09-03T11:48:49.265Z,99.99
2018-09-03T11:49:49.191Z,99.99
2018-09-03T11:50:49.123Z,99.99
2018-09-03T11:51:49.053Z,99.99
2018-09-03T11:52:48.985Z,99.99
2018-09-03T11:53:48.916Z,99.99
2018-09-03T11:54:48.846Z,99.99
2018-09-03T11:55:48.777Z,99.99
2018-09-03T11:56:48.710Z,99.99
2018-09-03T11:57:48.644Z,99.99
2018-09-03T11:58:48.573Z,99.99
2018-09-03T11:59:48.504Z,99.99
2018-09-03T12:00:48.437Z,99.99
2018-09-03T12:01:48.367Z,99.99
2018-09-03T12:02:48.304Z,99.99
2018-09-03T12:03:48.229Z,99.99
2018-09-03T12:04:48.162Z,99.99
2018-09-03T12:05:48.093Z,99.99
2018-09-03T12:06:48.052Z,99.99
2018-09-03T12:07:47.956Z,99.99
2018-09-03T12:08:47.888Z,99.99
2018-09-03T12:09:47.821Z,99.99
2018-09-03T12:10:47.751Z,99.99
2018-09-03T12:11:47.681Z,99.99
2018-09-03T12:12:47.614Z,99.99
2018-09-03T12:13:47.547Z,99.99
2018-09-03T12:14:47.476Z,99.99
2018-09-03T12:15:47.409Z,99.99
2018-09-03T12:16:47.341Z,99.99
2018-09-03T12:17:47.270Z,99.99
2018-09-03T12:18:47.202Z,99.99
2018-09-03T12:19:47.133Z,99.99
2018-09-03T12:20:47.113Z,99.99
2018-09-03T12:21:46.995Z,99.99
2018-09-03T12:22:46.927Z,99.99
2018-09-03T12:23:46.857Z,99.99
2018-09-03T12:24:46.789Z,99.99
2018-09-03T12:25:46.721Z,99.99
2018-09-03T12:26:46.652Z,99.99
2018-09-03T12:27:46.713Z,99.99
2018-09-03T12:28:46.514Z,99.99
2018-09-03T12:29:46.446Z,99.99
2018-09-03T12:30:46.380Z,99.99
2018-09-03T12:31:46.307Z,99.99
2018-09-03T12:32:46.260Z,99.99
2018-09-03T12:33:46.169Z,99.99
2018-09-03T12:34:46.103Z,99.99
2018-09-03T12:35:46.031Z,99.99
2018-09-03T12:36:45.964Z,99.99
2018-09-03T12:37:45.894Z,99.99
2018-09-03T12:38:45.826Z,99.99
2018-09-03T12:39:45.757Z,99.99
2018-09-03T12:40:45.688Z,99.99
2018-09-03T12:41:45.621Z,99.99
2018-09-03T12:42:45.587Z,99.99
2018-09-03T12:43:45.483Z,99.99
2018-09-03T12:44:45.412Z,99.99
2018-09-03T12:45:45.345Z,99.99
2018-09-03T12:46:45.276Z,99.99
2018-09-03T12:47:45.207Z,99.99
2018-09-03T12:48:45.137Z,99.99
2018-09-03T12:49:45.068Z,99.99
2018-09-03T12:50:45.000Z,99.99
2018-09-03T12:51:44.930Z,99.99